Time;durP1;ratioP1;P1;durP2;ratioP2;P2;SDS_P1;SDS_P2;PMS_P1;PMS_P2;Temp;Humidity;BMP_temperature;BMP_pressure;BME280_temperature;BME280_humidity;BME280_pressure;Samples;Min_cycle;Max_cycle;Signal;HPM_P1;HPM_P2
2022/11/23 00:01:31;;;;;;;0.40;0.40;;;;;;;11.45;56.69;93855.81;4947367;28;20444;-61
2022/11/23 00:04:04;;;;;;;0.23;0.23;;;;;;;11.50;56.98;93853.09;4933176;29;20543;-61
2022/11/23 00:06:32;;;;;;;2.83;0.90;;;;;;;11.38;57.07;93860.66;4933542;29;20530;-62
2022/11/23 00:08:58;;;;;;;0.63;0.63;;;;;;;11.27;57.30;93856.59;4945884;29;20920;-64
2022/11/23 00:11:27;;;;;;;0.70;0.70;;;;;;;11.66;56.44;93857.09;4939138;28;20447;-62
2022/11/23 00:13:54;;;;;;;0.10;0.10;;;;;;;11.59;56.75;93869.75;4952498;28;20483;-62
2022/11/23 00:16:23;;;;;;;1.33;1.20;;;;;;;11.76;55.99;93867.44;4949365;28;20496;-63
2022/11/23 00:18:56;;;;;;;1.10;1.03;;;;;;;11.12;58.17;93879.34;4942757;29;20530;-64
2022/11/23 00:21:24;;;;;;;0.08;0.08;;;;;;;11.11;58.21;93877.78;4935654;28;20463;-62
2022/11/23 00:23:52;;;;;;;1.30;0.93;;;;;;;11.55;57.45;93866.16;4933014;29;20279;-62
2022/11/23 00:26:19;;;;;;;0.47;0.43;;;;;;;11.53;57.11;93873.53;4933073;29;20462;-61
2022/11/23 00:28:46;;;;;;;0.30;0.30;;;;;;;11.78;56.89;93875.78;4939499;29;21025;-61
2022/11/23 00:31:19;;;;;;;0.30;0.30;;;;;;;11.70;56.53;93866.72;4952378;28;20447;-61
2022/11/23 00:33:53;;;;;;;0.70;0.67;;;;;;;11.83;56.36;93857.34;4933260;29;20444;-61
2022/11/23 00:36:21;;;;;;;2.73;2.17;;;;;;;11.93;56.44;93859.81;4946677;29;20501;-61
2022/11/23 00:38:49;;;;;;;5.20;1.70;;;;;;;11.89;56.12;93870.09;4947677;29;21008;-63
2022/11/23 00:41:25;;;;;;;0.30;0.30;;;;;;;12.02;55.31;93869.34;4945188;29;20487;-61
2022/11/23 00:43:52;;;;;;;3.93;1.50;;;;;;;12.00;55.50;93868.09;4951765;28;20934;-63
2022/11/23 00:46:26;;;;;;;0.20;0.20;;;;;;;11.77;56.23;93863.75;4951825;28;20467;-63
2022/11/23 00:48:55;;;;;;;0.30;0.30;;;;;;;12.02;55.58;93856.22;4951846;28;20478;-61
2022/11/23 00:51:24;;;;;;;24.63;2.20;;;;;;;11.38;56.74;93858.81;4942050;28;20448;-62
2022/11/23 00:53:51;;;;;;;0.43;0.43;;;;;;;11.44;56.70;93867.38;4932863;29;20489;-62
2022/11/23 00:56:19;;;;;;;0.97;0.63;;;;;;;10.94;58.63;93880.13;4952040;28;20505;-62
2022/11/23 00:58:50;;;;;;;0.30;0.30;;;;;;;11.30;58.26;93858.66;4950696;28;20482;-61
2022/11/23 01:01:19;;;;;;;2.43;1.33;;;;;;;11.26;57.94;93847.19;4946746;28;20455;-62
2022/11/23 01:03:49;;;;;;;0.53;0.53;;;;;;;11.10;58.45;93855.25;4942941;28;20440;-60
2022/11/23 01:06:19;;;;;;;0.60;0.60;;;;;;;11.09;59.26;93853.69;4951589;29;20455;-63
2022/11/23 01:08:57;;;;;;;1.60;1.50;;;;;;;11.12;60.33;93836.63;4941269;28;20893;-62
2022/11/23 01:11:26;;;;;;;1.27;0.77;;;;;;;11.45;59.12;93853.97;4945508;29;20546;-62
2022/11/23 01:13:54;;;;;;;0.00;0.00;;;;;;;11.59;58.56;93861.88;4930988;29;21107;-61
2022/11/23 01:16:29;;;;;;;1.10;1.00;;;;;;;11.29;59.34;93876.25;4945625;29;20248;-62
2022/11/23 01:19:03;;;;;;;2.00;1.23;;;;;;;11.47;58.75;93853.69;4942880;29;20502;-61
2022/11/23 01:21:32;;;;;;;0.37;0.37;;;;;;;11.77;58.06;93869.00;4951148;29;20447;-61
2022/11/23 01:23:59;;;;;;;0.40;0.40;;;;;;;11.66;58.63;93851.84;4941609;28;20448;-61
2022/11/23 01:26:25;;;;;;;0.60;0.60;;;;;;;11.77;57.96;93848.00;4945517;29;20463;-62
2022/11/23 01:28:56;;;;;;;0.60;0.60;;;;;;;11.96;58.86;93848.72;4930558;29;20514;-63
2022/11/23 01:31:24;;;;;;;1.47;1.37;;;;;;;12.04;58.71;93837.56;4945527;29;20451;-62
2022/11/23 01:33:56;;;;;;;1.13;1.03;;;;;;;12.12;58.14;93847.38;4934877;29;20487;-62
2022/11/23 01:36:26;;;;;;;0.23;0.23;;;;;;;12.24;57.14;93852.97;4932707;29;20491;-62
2022/11/23 01:38:54;;;;;;;0.20;0.20;;;;;;;12.32;56.75;93851.50;4951255;28;20543;-62
2022/11/23 01:41:24;;;;;;;0.40;0.40;;;;;;;12.24;57.12;93855.59;4937160;29;20460;-62
2022/11/23 01:43:51;;;;;;;0.57;0.57;;;;;;;12.34;56.73;93863.28;4932556;29;20519;-61
2022/11/23 01:46:18;;;;;;;0.53;0.53;;;;;;;12.25;57.10;93865.00;4938901;29;20480;-62
2022/11/23 01:48:56;;;;;;;2.20;1.57;;;;;;;12.27;56.93;93841.88;4944129;29;20975;-60
2022/11/23 01:51:33;;;;;;;0.33;0.30;;;;;;;12.21;57.74;93832.50;4932236;29;20451;-61
2022/11/23 01:54:12;;;;;;;0.73;0.73;;;;;;;11.87;57.88;93838.13;4933433;29;20458;-62
2022/11/23 01:56:45;;;;;;;0.50;0.50;;;;;;;11.97;58.25;93858.16;4950958;28;20487;-60
2022/11/23 01:59:16;;;;;;;1.33;0.90;;;;;;;12.15;57.70;93852.06;4935850;28;20449;-61
2022/11/23 02:01:43;;;;;;;3.10;2.00;;;;;;;12.10;57.87;93852.13;4942095;28;20475;-61
2022/11/23 02:04:21;;;;;;;0.20;0.20;;;;;;;11.40;59.91;93853.28;4946270;28;20454;-61
2022/11/23 02:06:49;;;;;;;2.10;1.70;;;;;;;11.71;59.16;93854.41;4950876;28;20443;-61
2022/11/23 02:09:18;;;;;;;0.43;0.43;;;;;;;12.00;58.64;93841.84;4946243;28;21098;-62
2022/11/23 02:11:45;;;;;;;0.10;0.10;;;;;;;12.09;57.94;93842.72;4934494;28;20466;-62
2022/11/23 02:14:13;;;;;;;0.60;0.60;;;;;;;12.21;58.58;93827.25;4943755;28;20487;-60
2022/11/23 02:16:46;;;;;;;2.83;1.63;;;;;;;12.23;57.98;93830.38;4946397;28;20579;-62
2022/11/23 02:19:40;;;;;;;5.50;3.20;;;;;;;11.66;59.80;93826.38;4944458;28;20542;-60
2022/11/23 02:22:15;;;;;;;1.03;0.90;;;;;;;12.09;58.64;93837.47;4951407;28;20850;-62
2022/11/23 02:24:48;;;;;;;1.70;1.60;;;;;;;12.09;58.85;93834.84;4951298;28;20946;-62
2022/11/23 02:27:16;;;;;;;1.50;1.40;;;;;;;12.01;58.36;93838.91;4941978;29;20448;-61
2022/11/23 02:29:43;;;;;;;0.60;0.60;;;;;;;12.01;58.89;93832.88;4931631;29;20487;-62
2022/11/23 02:32:10;;;;;;;1.07;0.93;;;;;;;11.92;59.36;93824.91;4943213;28;20452;-60
2022/11/23 02:34:36;;;;;;;2.83;0.77;;;;;;;11.90;58.75;93815.75;4930192;29;20566;-61
2022/11/23 02:37:03;;;;;;;0.63;0.63;;;;;;;11.70;59.43;93805.59;4945842;29;20481;-62
2022/11/23 02:39:45;;;;;;;1.77;1.67;;;;;;;11.86;59.01;93810.28;4931606;29;20479;-64
2022/11/23 02:42:12;;;;;;;1.07;0.97;;;;;;;12.09;58.41;93808.59;4932737;29;20459;-60
2022/11/23 02:44:38;;;;;;;0.13;0.13;;;;;;;12.12;58.33;93800.13;4939130;29;20511;-62
2022/11/23 02:47:06;;;;;;;0.83;0.83;;;;;;;12.02;58.17;93795.81;4948869;29;20530;-62
2022/11/23 02:49:33;;;;;;;0.33;0.33;;;;;;;11.97;58.40;93780.19;4940356;28;20807;-63
2022/11/23 02:52:01;;;;;;;0.30;0.30;;;;;;;12.09;58.32;93769.19;4950643;28;20447;-63
2022/11/23 02:54:28;;;;;;;0.50;0.50;;;;;;;12.23;57.78;93778.63;4947527;29;21322;-61
2022/11/23 02:56:56;;;;;;;1.07;0.67;;;;;;;11.88;58.07;93774.03;4933250;29;20829;-61
2022/11/23 02:59:23;;;;;;;2.90;2.20;;;;;;;11.46;59.60;93765.59;4951429;28;20793;-61
2022/11/23 03:01:52;;;;;;;0.07;0.07;;;;;;;11.77;58.91;93774.53;4952455;29;20487;-62
2022/11/23 03:04:19;;;;;;;4.70;0.77;;;;;;;11.43;59.16;93779.25;4937925;28;21020;-62
2022/11/23 03:06:53;;;;;;;0.10;0.10;;;;;;;11.87;57.99;93766.47;4941833;29;20457;-62
2022/11/23 03:09:20;;;;;;;0.20;0.20;;;;;;;11.55;58.86;93767.25;4950338;28;20877;-61
2022/11/23 03:11:47;;;;;;;2.00;0.77;;;;;;;11.79;58.16;93756.63;4945855;28;20479;-62
2022/11/23 03:14:14;;;;;;;0.30;0.30;;;;;;;11.45;58.90;93725.47;4946454;29;20439;-62
2022/11/23 03:16:47;;;;;;;2.00;0.57;;;;;;;11.51;59.04;93739.25;4945486;29;20479;-62
2022/11/23 03:19:16;;;;;;;0.63;0.63;;;;;;;10.87;60.77;93767.00;4943003;29;20472;-62
2022/11/23 03:21:43;;;;;;;0.23;0.23;;;;;;;11.41;59.47;93744.66;4938032;29;20478;-61
2022/11/23 03:24:10;;;;;;;0.57;0.57;;;;;;;11.02;60.38;93758.91;4949029;28;20444;-61
2022/11/23 03:26:37;;;;;;;1.77;0.88;;;;;;;11.54;59.55;93749.94;4918072;29;20197;-61
2022/11/23 03:29:09;;;;;;;0.10;0.10;;;;;;;11.83;58.24;93741.84;4933045;29;20232;-61
2022/11/23 03:31:38;;;;;;;0.33;0.33;;;;;;;11.54;59.23;93772.78;4948842;29;20436;-61
2022/11/23 03:34:09;;;;;;;0.82;0.82;;;;;;;11.37;60.29;93764.69;4968238;28;20836;-61
2022/11/23 03:36:37;;;;;;;2.17;0.80;;;;;;;11.57;59.47;93756.47;4938294;29;20248;-61
2022/11/23 03:39:04;;;;;;;1.03;1.03;;;;;;;11.80;58.50;93747.69;4948563;29;20519;-60
2022/11/23 03:41:53;;;;;;;0.47;0.40;;;;;;;11.72;58.67;93727.38;4933330;29;20992;-61
2022/11/23 03:44:25;;;;;;;11.53;3.30;;;;;;;11.76;58.36;93742.25;4939267;29;20533;-62
2022/11/23 03:46:52;;;;;;;0.73;0.63;;;;;;;11.08;60.76;93755.16;4947612;28;20607;-63
2022/11/23 03:49:19;;;;;;;0.63;0.63;;;;;;;11.84;58.79;93730.31;4943202;29;20895;-60
2022/11/23 03:51:46;;;;;;;0.50;0.50;;;;;;;12.09;57.58;93716.69;4933296;29;20535;-62
2022/11/23 03:54:13;;;;;;;0.23;0.23;;;;;;;12.02;58.16;93718.94;4945407;29;20511;-60
2022/11/23 03:56:40;;;;;;;1.00;1.00;;;;;;;11.79;58.10;93735.63;4938106;29;20480;-61
2022/11/23 03:59:07;;;;;;;0.20;0.20;;;;;;;11.94;58.01;93720.38;4937734;29;20483;-61
2022/11/23 04:01:34;;;;;;;0.10;0.10;;;;;;;11.81;57.83;93670.50;4952487;28;20513;-61
2022/11/23 04:04:04;;;;;;;0.10;0.10;;;;;;;11.89;58.28;93690.84;4936281;28;20444;-62
2022/11/23 04:06:51;;;;;;;0.60;0.60;;;;;;;11.48;59.71;93713.63;4933530;29;20214;-62
2022/11/23 04:09:22;;;;;;;5.03;0.97;;;;;;;11.46;59.60;93705.25;4934024;29;20602;-61
2022/11/23 04:12:10;;;;;;;0.32;0.32;;;;;;;11.45;60.14;93724.66;4958236;28;20444;-61
2022/11/23 04:14:38;;;;;;;0.60;0.60;;;;;;;11.46;59.93;93721.00;4947841;28;20699;-61
2022/11/23 04:17:05;;;;;;;1.57;1.47;;;;;;;11.58;58.94;93729.94;4940779;28;21053;-61
2022/11/23 04:19:32;;;;;;;1.07;0.97;;;;;;;11.28;60.24;93735.69;4947486;28;20444;-62
2022/11/23 04:21:59;;;;;;;0.67;0.67;;;;;;;11.70;59.24;93747.84;4952195;28;20457;-62
2022/11/23 04:24:32;;;;;;;0.10;0.10;;;;;;;11.27;59.90;93738.63;4959313;28;20440;-63
2022/11/23 04:27:02;;;;;;;0.30;0.30;;;;;;;11.65;59.57;93740.09;4944934;29;20554;-62
2022/11/23 04:29:29;;;;;;;3.37;1.43;;;;;;;11.48;59.52;93734.59;4937688;28;20448;-61
2022/11/23 04:31:56;;;;;;;0.40;0.40;;;;;;;11.22;60.09;93731.63;4947422;29;20547;-62
2022/11/23 04:34:24;;;;;;;0.40;0.40;;;;;;;11.43;60.10;93726.81;4931490;29;20440;-61
2022/11/23 04:36:52;;;;;;;2.43;1.00;;;;;;;11.70;59.61;93719.78;4938843;28;20590;-62
2022/11/23 04:39:25;;;;;;;0.30;0.30;;;;;;;11.75;58.85;93721.56;4945597;29;20827;-62
2022/11/23 04:42:21;;;;;;;0.60;0.60;;;;;;;11.73;59.51;93727.06;4936009;29;20548;-62
2022/11/23 04:44:56;;;;;;;0.40;0.40;;;;;;;11.71;59.35;93725.81;4947597;28;20463;-61
2022/11/23 04:47:24;;;;;;;0.50;0.40;;;;;;;11.32;60.41;93754.25;4932539;29;20870;-61
2022/11/23 04:49:52;;;;;;;0.10;0.10;;;;;;;11.11;60.76;93746.72;4934275;29;20524;-61
2022/11/23 04:52:19;;;;;;;0.10;0.10;;;;;;;11.34;60.89;93744.25;4947111;29;20456;-64
2022/11/23 04:54:49;;;;;;;1.30;0.97;;;;;;;10.57;63.00;93746.47;4936067;29;20532;-59
2022/11/23 04:57:15;;;;;;;2.07;1.23;;;;;;;11.09;62.57;93769.81;4945711;29;20491;-62
2022/11/23 04:59:44;;;;;;;25.27;2.00;;;;;;;11.59;60.43;93776.09;4934607;29;20827;-62
2022/11/23 05:02:11;;;;;;;2.13;1.60;;;;;;;11.65;59.89;93771.56;4933906;29;20972;-61
2022/11/23 05:04:47;;;;;;;0.40;0.40;;;;;;;11.15;62.02;93778.38;4933856;29;20443;-61
2022/11/23 05:07:16;;;;;;;0.63;0.63;;;;;;;11.10;61.97;93775.84;4932417;29;20503;-61
2022/11/23 05:09:48;;;;;;;0.60;0.60;;;;;;;10.66;63.57;93776.19;4931277;29;20456;-62
2022/11/23 05:12:17;;;;;;;1.67;1.47;;;;;;;10.85;63.43;93771.75;4944470;29;20522;-61
2022/11/23 05:14:44;;;;;;;0.30;0.30;;;;;;;11.23;62.03;93775.91;4933134;29;20948;-61
2022/11/23 05:17:15;;;;;;;0.80;0.80;;;;;;;10.75;63.54;93790.22;4930573;29;20472;-61
2022/11/23 05:19:45;;;;;;;2.93;0.83;;;;;;;11.10;62.83;93784.47;4948842;29;20447;-61
2022/11/23 05:22:12;;;;;;;0.10;0.10;;;;;;;10.72;63.36;93775.06;4946997;28;20658;-61
2022/11/23 05:24:40;;;;;;;0.33;0.33;;;;;;;10.48;64.80;93782.19;4931919;29;20476;-60
2022/11/23 05:27:26;;;;;;;1.10;0.87;;;;;;;11.00;63.37;93771.50;4933104;29;20508;-61
2022/11/23 05:29:54;;;;;;;0.60;0.50;;;;;;;11.05;63.39;93749.72;4942450;28;20459;-65
2022/11/23 05:32:20;;;;;;;1.00;0.40;;;;;;;11.26;62.31;93739.69;4936461;29;20436;-62
2022/11/23 05:34:47;;;;;;;0.47;0.47;;;;;;;10.19;65.61;93752.72;4951806;28;20483;-61
2022/11/23 05:37:16;;;;;;;0.10;0.10;;;;;;;10.53;64.82;93758.56;4936314;28;21049;-61
2022/11/23 05:39:52;;;;;;;0.07;0.07;;;;;;;11.14;63.04;93767.13;4949826;28;20955;-64
2022/11/23 05:42:20;;;;;;;0.70;0.70;;;;;;;11.28;62.92;93756.69;4936191;28;20849;-62
2022/11/23 05:44:47;;;;;;;2.30;0.80;;;;;;;11.03;64.09;93750.00;4935671;28;20476;-61
2022/11/23 05:47:21;;;;;;;0.87;0.50;;;;;;;10.99;63.94;93753.47;4948694;28;20487;-61
2022/11/23 05:49:49;;;;;;;0.40;0.40;;;;;;;10.91;63.78;93757.50;4939723;29;20449;-62
2022/11/23 05:52:19;;;;;;;0.33;0.33;;;;;;;11.03;63.17;93755.25;4948050;29;20844;-62
2022/11/23 05:54:46;;;;;;;0.53;0.53;;;;;;;10.94;64.08;93756.16;4949750;29;20662;-61
2022/11/23 05:57:14;;;;;;;1.90;1.03;;;;;;;11.43;62.81;93758.28;4949306;28;21120;-61
2022/11/23 05:59:43;;;;;;;1.40;0.97;;;;;;;11.34;63.00;93767.88;4943338;28;20445;-61
2022/11/23 06:02:16;;;;;;;1.50;0.90;;;;;;;10.95;65.67;93766.34;4930377;29;20507;-63
2022/11/23 06:04:43;;;;;;;0.97;0.97;;;;;;;11.06;65.01;93759.13;4930600;28;20511;-64
2022/11/23 06:07:14;;;;;;;0.83;0.83;;;;;;;11.27;64.18;93763.00;4930683;29;20453;-62
2022/11/23 06:10:02;;;;;;;0.30;0.30;;;;;;;10.89;65.01;93770.09;4930501;29;21050;-61
2022/11/23 06:12:32;;;;;;;0.83;0.83;;;;;;;11.38;63.00;93753.91;4943975;29;20475;-62
2022/11/23 06:15:00;;;;;;;2.07;1.50;;;;;;;11.78;62.29;93749.81;4933430;29;20456;-64
2022/11/23 06:17:28;;;;;;;1.73;1.63;;;;;;;11.86;61.53;93768.28;4937058;28;20756;-63
2022/11/23 06:20:01;;;;;;;0.20;0.20;;;;;;;12.22;60.54;93769.19;4930086;29;20441;-63
2022/11/23 06:22:28;;;;;;;1.87;1.77;;;;;;;12.21;60.68;93764.22;4944827;29;20893;-62
2022/11/23 06:25:00;;;;;;;3.23;0.90;;;;;;;11.71;63.71;93765.19;4941076;28;20470;-63
2022/11/23 06:27:51;;;;;;;0.00;0.00;;;;;;;12.12;61.03;93776.50;4932636;28;20437;-62
2022/11/23 06:30:23;;;;;;;3.67;1.03;;;;;;;11.53;62.80;93787.72;4932994;29;20448;-61
2022/11/23 06:32:51;;;;;;;2.00;0.80;;;;;;;11.96;62.15;93783.09;4949945;28;20436;-61
2022/11/23 06:35:20;;;;;;;0.93;0.93;;;;;;;12.44;60.27;93778.25;4918896;29;20458;-61
2022/11/23 06:37:49;;;;;;;0.10;0.10;;;;;;;12.38;60.45;93777.56;4948662;29;21026;-60
2022/11/23 06:40:16;;;;;;;7.23;2.03;;;;;;;12.26;60.95;93772.03;4941225;29;20448;-61
2022/11/23 06:42:43;;;;;;;4.07;2.00;;;;;;;12.36;60.56;93784.97;4950116;29;20451;-61
2022/11/23 06:45:19;;;;;;;0.10;0.10;;;;;;;11.95;61.40;93792.06;4942929;29;20488;-61
2022/11/23 06:47:49;;;;;;;0.47;0.47;;;;;;;12.32;60.82;93786.59;4949297;29;20475;-61
2022/11/23 06:50:17;;;;;;;0.30;0.30;;;;;;;11.69;62.37;93783.06;4951547;29;20443;-62
2022/11/23 06:52:45;;;;;;;1.73;1.40;;;;;;;11.26;63.66;93784.25;4934483;28;20455;-62
2022/11/23 06:55:14;;;;;;;0.40;0.40;;;;;;;11.67;62.93;93775.47;4942145;28;20535;-63
2022/11/23 06:57:40;;;;;;;0.53;0.43;;;;;;;12.44;60.37;93776.41;4931589;29;20582;-61
2022/11/23 07:00:10;;;;;;;0.30;0.30;;;;;;;12.23;61.16;93789.16;4943562;29;20566;-60
2022/11/23 07:02:37;;;;;;;0.57;0.57;;;;;;;12.13;61.49;93796.44;4952798;29;20486;-62
2022/11/23 07:05:05;;;;;;;3.53;2.10;;;;;;;12.48;61.05;93781.84;4950086;29;20447;-62
2022/11/23 07:07:32;;;;;;;0.50;0.50;;;;;;;12.06;62.50;93767.16;4935255;29;20980;-62
2022/11/23 07:10:09;;;;;;;0.53;0.53;;;;;;;12.71;60.62;93779.00;4944623;29;20436;-61
2022/11/23 07:12:53;;;;;;;2.90;1.03;;;;;;;12.90;61.52;93766.47;4946547;29;20448;-62
2022/11/23 07:15:21;;;;;;;0.53;0.53;;;;;;;13.02;61.43;93776.47;4942292;29;20510;-62
2022/11/23 07:17:50;;;;;;;1.47;1.37;;;;;;;13.04;60.40;93788.28;4938743;29;20559;-62
2022/11/23 07:20:19;;;;;;;1.90;1.80;;;;;;;12.59;60.85;93791.84;4952230;28;20652;-61
2022/11/23 07:22:46;;;;;;;7.20;1.07;;;;;;;12.83;59.91;93781.88;4953789;28;20458;-62
2022/11/23 07:25:17;;;;;;;0.67;0.67;;;;;;;13.06;60.24;93780.84;4949343;29;20908;-64
2022/11/23 07:27:44;;;;;;;0.47;0.47;;;;;;;13.17;60.10;93774.31;4942533;29;21326;-60
2022/11/23 07:30:11;;;;;;;3.20;2.13;;;;;;;12.83;61.51;93776.63;4932837;29;20511;-61
2022/11/23 07:32:38;;;;;;;0.83;0.83;;;;;;;13.09;60.68;93779.50;4944174;29;20558;-62
2022/11/23 07:35:05;;;;;;;3.70;1.90;;;;;;;13.34;60.86;93796.56;4949028;29;21225;-61
2022/11/23 07:37:35;;;;;;;2.07;1.97;;;;;;;12.76;60.91;93807.78;4939445;28;20476;-63
2022/11/23 07:40:03;;;;;;;2.17;1.33;;;;;;;12.77;60.92;93798.81;4945381;29;20835;-61
2022/11/23 07:42:32;;;;;;;2.97;1.70;;;;;;;12.81;59.73;93778.00;4941745;29;20502;-61
2022/11/23 07:45:09;;;;;;;1.57;1.27;;;;;;;12.47;61.37;93793.41;4937493;28;20455;-61
2022/11/23 07:47:38;;;;;;;0.37;0.33;;;;;;;12.80;61.22;93785.09;4938291;29;20535;-62
2022/11/23 07:50:07;;;;;;;0.10;0.10;;;;;;;12.55;62.79;93784.84;4948904;29;20459;-62
2022/11/23 07:52:35;;;;;;;2.73;1.00;;;;;;;12.50;62.32;93790.97;4934056;29;20536;-62
2022/11/23 07:55:03;;;;;;;1.50;1.30;;;;;;;12.74;61.81;93788.91;4934125;29;20456;-61
2022/11/23 07:57:30;;;;;;;1.63;1.47;;;;;;;13.31;60.62;93786.63;4949407;29;20822;-61
2022/11/23 07:59:57;;;;;;;0.63;0.63;;;;;;;13.80;59.41;93771.47;4952554;28;20454;-61
2022/11/23 08:02:24;;;;;;;0.40;0.40;;;;;;;13.94;58.94;93784.56;4952647;28;20447;-60
2022/11/23 08:04:51;;;;;;;0.80;0.80;;;;;;;13.78;58.54;93780.75;4946524;28;20457;-61
2022/11/23 08:07:18;;;;;;;0.43;0.33;;;;;;;14.41;57.40;93760.13;4946322;29;20447;-62
2022/11/23 08:09:44;;;;;;;0.43;0.43;;;;;;;14.63;56.77;93767.16;4939169;28;21093;-62
2022/11/23 08:12:11;;;;;;;1.73;1.63;;;;;;;14.68;56.60;93788.09;4953022;28;20515;-61
2022/11/23 08:14:38;;;;;;;0.47;0.47;;;;;;;14.29;56.40;93794.19;4952509;28;20506;-61
2022/11/23 08:17:05;;;;;;;1.50;1.40;;;;;;;14.56;56.46;93777.41;4952752;28;20479;-62
2022/11/23 08:19:32;;;;;;;1.30;1.20;;;;;;;14.78;55.28;93767.50;4951007;28;20944;-62
2022/11/23 08:21:58;;;;;;;0.60;0.60;;;;;;;15.09;55.70;93768.16;4941014;28;20907;-62
2022/11/23 08:24:25;;;;;;;2.17;1.33;;;;;;;15.34;55.16;93763.19;4952964;28;21105;-63
2022/11/23 08:26:52;;;;;;;2.20;2.00;;;;;;;15.27;55.64;93758.38;4933792;28;20826;-62
2022/11/23 08:29:19;;;;;;;1.77;1.03;;;;;;;15.37;54.42;93768.63;4933198;29;20448;-61
2022/11/23 08:31:46;;;;;;;0.33;0.30;;;;;;;15.83;53.72;93765.31;4937718;29;20461;-62
2022/11/23 08:34:13;;;;;;;2.30;1.53;;;;;;;15.56;53.41;93770.97;4952734;28;21009;-62
2022/11/23 08:36:40;;;;;;;1.90;1.13;;;;;;;15.90;53.15;93768.25;4952761;28;20506;-62
2022/11/23 08:39:07;;;;;;;1.53;1.43;;;;;;;16.26;52.70;93757.25;4944297;28;20452;-63
2022/11/23 08:41:34;;;;;;;2.73;1.97;;;;;;;16.39;51.19;93767.59;4946338;29;20947;-61
2022/11/23 08:44:01;;;;;;;4.07;2.00;;;;;;;16.92;50.80;93759.88;4939732;28;20558;-62
2022/11/23 08:46:27;;;;;;;1.53;1.43;;;;;;;17.10;49.93;93755.22;4952128;28;20542;-61
2022/11/23 08:48:55;;;;;;;1.53;1.17;;;;;;;16.95;50.53;93756.56;4946472;28;20444;-61
2022/11/23 08:51:22;;;;;;;1.60;1.50;;;;;;;16.67;50.84;93758.16;4932730;28;20453;-62
2022/11/23 08:53:49;;;;;;;1.20;1.07;;;;;;;16.49;51.22;93766.50;4932963;29;20460;-64
2022/11/23 08:56:16;;;;;;;0.43;0.43;;;;;;;16.13;51.26;93780.13;4933210;29;21168;-61
2022/11/23 08:58:43;;;;;;;0.30;0.30;;;;;;;15.96;52.36;93781.00;4945121;28;20879;-61
2022/11/23 09:01:12;;;;;;;1.60;0.93;;;;;;;16.00;52.31;93770.56;4933961;28;20902;-62
2022/11/23 09:03:40;;;;;;;0.67;0.67;;;;;;;15.71;53.19;93762.56;4942953;29;20458;-60
2022/11/23 09:06:07;;;;;;;3.47;1.97;;;;;;;15.73;53.08;93768.31;4949066;28;20516;-63
2022/11/23 09:08:35;;;;;;;1.90;1.63;;;;;;;16.45;51.85;93771.63;4941876;29;20839;-62
2022/11/23 09:11:05;;;;;;;8.73;1.70;;;;;;;16.95;50.87;93753.94;4951780;28;20574;-62
2022/11/23 09:13:35;;;;;;;0.93;0.47;;;;;;;17.23;50.30;93754.19;4943982;28;20453;-63
2022/11/23 09:16:03;;;;;;;0.30;0.30;;;;;;;17.44;49.46;93743.59;4946910;28;20475;-62
2022/11/23 09:18:32;;;;;;;0.57;0.57;;;;;;;17.40;49.19;93742.69;4945276;28;20921;-62
2022/11/23 09:21:04;;;;;;;0.70;0.70;;;;;;;17.62;48.37;93742.34;4932894;29;20480;-62
2022/11/23 09:23:31;;;;;;;0.67;0.67;;;;;;;18.25;47.88;93733.09;4952036;28;20443;-62
2022/11/23 09:25:59;;;;;;;0.77;0.77;;;;;;;18.47;46.94;93728.16;4939804;28;20452;-64
2022/11/23 09:28:27;;;;;;;0.37;0.37;;;;;;;18.36;46.98;93732.31;4946378;28;20507;-62
2022/11/23 09:30:55;;;;;;;0.30;0.30;;;;;;;17.74;47.85;93737.09;4932209;29;20448;-64
2022/11/23 09:33:24;;;;;;;0.20;0.20;;;;;;;18.54;47.59;93730.28;4949225;28;20443;-63
2022/11/23 09:36:01;;;;;;;0.83;0.83;;;;;;;18.68;46.82;93728.81;4951490;28;20454;-62
2022/11/23 09:38:28;;;;;;;0.40;0.40;;;;;;;18.42;46.71;93714.34;4948469;28;20512;-63
2022/11/23 09:41:40;;;;;;;0.70;0.67;;;;;;;18.34;45.83;93723.16;4944172;29;20944;-61
2022/11/23 09:44:38;;;;;;;1.60;1.10;;;;;;;18.39;46.72;93726.38;4940409;28;20451;-62
2022/11/23 09:47:07;;;;;;;2.30;0.60;;;;;;;18.68;47.12;93728.81;4938454;29;20472;-61
2022/11/23 09:49:43;;;;;;;0.70;0.70;;;;;;;18.93;45.54;93730.31;4942871;28;20482;-62
2022/11/23 09:52:18;;;;;;;0.70;0.70;;;;;;;19.11;45.52;93726.31;4934008;28;20487;-62
2022/11/23 09:54:46;;;;;;;1.50;1.27;;;;;;;19.14;44.94;93728.28;4944384;28;20447;-65
2022/11/23 09:57:18;;;;;;;0.90;0.80;;;;;;;18.92;45.41;93731.41;4932482;29;20511;-63
2022/11/23 09:59:54;;;;;;;1.10;1.10;;;;;;;18.32;46.20;93731.44;4938930;28;20471;-64
2022/11/23 10:02:24;;;;;;;2.07;1.77;;;;;;;18.93;45.79;93719.72;4955303;28;20451;-63
2022/11/23 10:04:52;;;;;;;1.00;1.00;;;;;;;19.06;45.08;93713.28;4955722;28;20502;-61
2022/11/23 10:07:19;;;;;;;0.17;0.17;;;;;;;19.02;45.25;93717.69;4942792;28;20456;-64
2022/11/23 10:10:09;;;;;;;0.47;0.47;;;;;;;19.20;45.34;93708.34;4949621;29;20443;-64
2022/11/23 10:12:57;;;;;;;0.13;0.13;;;;;;;19.29;44.86;93712.75;4949598;28;20439;-63
2022/11/23 10:15:38;;;;;;;0.30;0.30;;;;;;;19.23;44.55;93712.22;4945696;29;20450;-62
2022/11/23 10:18:30;;;;;;;0.40;0.40;;;;;;;19.30;45.21;93716.94;4937992;28;20475;-63
2022/11/23 10:21:35;;;;;;;0.40;0.40;;;;;;;19.03;45.44;93710.50;4935853;29;20483;-64
2022/11/23 10:24:07;;;;;;;0.73;0.73;;;;;;;18.68;46.17;93714.78;4945850;29;20956;-64
2022/11/23 10:26:38;;;;;;;0.17;0.17;;;;;;;18.47;46.88;93717.53;4941424;28;20786;-63
2022/11/23 10:29:29;;;;;;;0.30;0.30;;;;;;;18.15;47.12;93721.06;4955129;28;20524;-63
2022/11/23 10:31:58;;;;;;;1.07;0.60;;;;;;;17.84;47.79;93710.97;4949182;28;20476;-62
2022/11/23 10:34:25;;;;;;;0.13;0.13;;;;;;;17.88;47.07;93716.38;4935794;29;20539;-64
2022/11/23 10:36:51;;;;;;;0.70;0.67;;;;;;;17.69;47.52;93713.44;4939399;29;20534;-63
2022/11/23 10:39:24;;;;;;;0.10;0.10;;;;;;;17.53;47.81;93708.03;4944998;28;20496;-64
2022/11/23 10:41:52;;;;;;;0.30;0.30;;;;;;;17.44;47.65;93706.50;4948887;29;20511;-63
2022/11/23 10:44:29;;;;;;;0.20;0.20;;;;;;;17.11;48.31;93704.63;4935978;29;20868;-64
2022/11/23 10:46:58;;;;;;;0.20;0.20;;;;;;;17.10;48.56;93703.06;4952138;28;20475;-64
2022/11/23 10:49:28;;;;;;;0.20;0.20;;;;;;;16.80;49.73;93709.53;4945496;28;20444;-62
2022/11/23 10:52:04;;;;;;;0.33;0.33;;;;;;;16.90;48.92;93695.91;4935057;29;20546;-63
2022/11/23 10:54:35;;;;;;;0.10;0.10;;;;;;;17.11;48.52;93688.75;4940699;29;20439;-63
2022/11/23 10:57:38;;;;;;;0.17;0.17;;;;;;;17.18;49.19;93709.41;4954898;28;20565;-63
2022/11/23 11:00:17;;;;;;;0.20;0.20;;;;;;;17.31;48.78;93702.28;4943968;29;20985;-62
2022/11/23 11:02:53;;;;;;;0.27;0.27;;;;;;;16.40;48.42;93713.66;4940416;28;20538;-64
2022/11/23 11:05:31;;;;;;;0.00;0.00;;;;;;;16.28;49.82;93718.06;4954196;28;20470;-61
2022/11/23 11:08:19;;;;;;;0.10;0.10;;;;;;;16.07;50.32;93723.28;4934910;29;20455;-61
2022/11/23 11:10:57;;;;;;;0.20;0.20;;;;;;;16.50;49.21;93715.94;4948006;28;20447;-63
2022/11/23 11:13:31;;;;;;;0.33;0.33;;;;;;;17.36;48.17;93710.78;4941026;29;20546;-63
2022/11/23 11:16:04;;;;;;;0.17;0.17;;;;;;;17.79;47.76;93707.75;4953479;28;21045;-63
2022/11/23 11:18:36;;;;;;;1.07;1.00;;;;;;;17.57;45.93;93702.84;4942167;29;20986;-67
2022/11/23 11:21:20;;;;;;;0.33;0.33;;;;;;;17.68;46.88;93703.97;4953917;29;20935;-62
2022/11/23 11:23:53;;;;;;;0.60;0.60;;;;;;;18.21;45.94;93703.81;4943276;29;20513;-62
2022/11/23 11:26:23;;;;;;;0.53;0.53;;;;;;;17.69;46.73;93697.56;4952445;28;20993;-62
2022/11/23 11:28:56;;;;;;;1.43;1.33;;;;;;;17.68;47.19;93702.06;4942884;29;20470;-63
2022/11/23 11:31:42;;;;;;;0.77;0.77;;;;;;;17.50;46.81;93692.00;4952631;28;20452;-62
2022/11/23 11:34:19;;;;;;;0.50;0.47;;;;;;;17.85;46.08;93679.91;4944405;29;20447;-63
2022/11/23 11:37:24;;;;;;;0.00;0.00;;;;;;;17.74;46.10;93687.53;4953731;28;20447;-62
2022/11/23 11:39:56;;;;;;;0.13;0.13;;;;;;;17.62;46.61;93676.13;4939922;28;20460;-61
2022/11/23 11:42:43;;;;;;;0.50;0.30;;;;;;;17.75;45.61;93678.50;4953514;28;20479;-62
2022/11/23 11:45:18;;;;;;;0.30;0.30;;;;;;;17.67;44.08;93683.88;4950415;28;20460;-64
2022/11/23 11:48:08;;;;;;;0.40;0.40;;;;;;;17.50;42.81;93684.81;4943328;29;21008;-62
2022/11/23 11:50:49;;;;;;;0.20;0.20;;;;;;;17.63;42.57;93677.66;4960965;28;20456;-63
2022/11/23 11:53:21;;;;;;;1.03;0.93;;;;;;;17.44;42.84;93683.47;4942923;29;20486;-63